sensor_id;sensor_type;location;lat;lon;timestamp;pressure;altitude;pressure_sealevel;temperature;humidity
48095;BME280;33874;52.070;-0.516;2023-03-15T00:00:56;101001.30;;;1.81;78.14
48095;BME280;33874;52.070;-0.516;2023-03-15T00:03:27;101002.79;;;1.79;78.44
48095;BME280;33874;52.070;-0.516;2023-03-15T00:05:55;101008.80;;;1.72;78.33
48095;BME280;33874;52.070;-0.516;2023-03-15T00:08:23;101014.14;;;1.65;78.38
48095;BME280;33874;52.070;-0.516;2023-03-15T00:10:52;101020.00;;;1.58;78.50
48095;BME280;33874;52.070;-0.516;2023-03-15T00:13:20;101026.93;;;1.54;78.37
48095;BME280;33874;52.070;-0.516;2023-03-15T00:15:49;101031.29;;;1.49;78.58
48095;BME280;33874;52.070;-0.516;2023-03-15T00:18:18;101031.38;;;1.47;78.77
48095;BME280;33874;52.070;-0.516;2023-03-15T00:20:46;101032.98;;;1.46;78.90
48095;BME280;33874;52.070;-0.516;2023-03-15T00:23:15;101040.13;;;1.45;78.94
48095;BME280;33874;52.070;-0.516;2023-03-15T00:25:43;101046.39;;;1.44;79.22
48095;BME280;33874;52.070;-0.516;2023-03-15T00:28:12;101052.84;;;1.43;79.23
48095;BME280;33874;52.070;-0.516;2023-03-15T00:30:40;101056.86;;;1.42;78.91
48095;BME280;33874;52.070;-0.516;2023-03-15T00:33:08;101059.12;;;1.42;79.54
48095;BME280;33874;52.070;-0.516;2023-03-15T00:35:41;101061.29;;;1.39;79.22
48095;BME280;33874;52.070;-0.516;2023-03-15T00:38:09;101063.60;;;1.38;79.32
48095;BME280;33874;52.070;-0.516;2023-03-15T00:40:37;101063.64;;;1.37;79.39
48095;BME280;33874;52.070;-0.516;2023-03-15T00:43:05;101060.92;;;1.36;79.41
48095;BME280;33874;52.070;-0.516;2023-03-15T00:45:32;101063.17;;;1.36;79.80
48095;BME280;33874;52.070;-0.516;2023-03-15T00:48:00;101067.60;;;1.38;79.89
48095;BME280;33874;52.070;-0.516;2023-03-15T00:50:28;101072.38;;;1.39;80.14
48095;BME280;33874;52.070;-0.516;2023-03-15T00:52:57;101075.25;;;1.42;80.25
48095;BME280;33874;52.070;-0.516;2023-03-15T00:55:24;101076.11;;;1.41;80.10
48095;BME280;33874;52.070;-0.516;2023-03-15T00:57:53;101073.70;;;1.41;79.94
48095;BME280;33874;52.070;-0.516;2023-03-15T01:00:22;101073.72;;;1.41;80.14
48095;BME280;33874;52.070;-0.516;2023-03-15T01:02:52;101079.29;;;1.39;80.02
48095;BME280;33874;52.070;-0.516;2023-03-15T01:05:20;101078.17;;;1.38;79.93
48095;BME280;33874;52.070;-0.516;2023-03-15T01:07:48;101086.73;;;1.36;79.67
48095;BME280;33874;52.070;-0.516;2023-03-15T01:10:16;101087.20;;;1.34;79.81
48095;BME280;33874;52.070;-0.516;2023-03-15T01:12:44;101092.13;;;1.31;79.79
48095;BME280;33874;52.070;-0.516;2023-03-15T01:15:13;101100.48;;;1.30;79.61
48095;BME280;33874;52.070;-0.516;2023-03-15T01:17:41;101106.75;;;1.29;79.95
48095;BME280;33874;52.070;-0.516;2023-03-15T01:20:12;101111.33;;;1.27;79.89
48095;BME280;33874;52.070;-0.516;2023-03-15T01:22:41;101105.75;;;1.24;79.78
48095;BME280;33874;52.070;-0.516;2023-03-15T01:25:09;101107.45;;;1.20;79.88
48095;BME280;33874;52.070;-0.516;2023-03-15T01:27:36;101108.52;;;1.20;80.24
48095;BME280;33874;52.070;-0.516;2023-03-15T01:30:05;101116.00;;;1.18;79.92
48095;BME280;33874;52.070;-0.516;2023-03-15T01:32:33;101121.64;;;1.16;79.99
48095;BME280;33874;52.070;-0.516;2023-03-15T01:35:01;101122.45;;;1.13;80.10
48095;BME280;33874;52.070;-0.516;2023-03-15T01:37:29;101122.29;;;1.09;79.62
48095;BME280;33874;52.070;-0.516;2023-03-15T01:39:57;101124.89;;;1.04;79.90
48095;BME280;33874;52.070;-0.516;2023-03-15T01:42:24;101127.95;;;1.02;79.91
48095;BME280;33874;52.070;-0.516;2023-03-15T01:44:54;101141.00;;;0.99;79.84
48095;BME280;33874;52.070;-0.516;2023-03-15T01:47:22;101139.23;;;0.95;80.06
48095;BME280;33874;52.070;-0.516;2023-03-15T01:49:55;101141.05;;;0.93;80.32
48095;BME280;33874;52.070;-0.516;2023-03-15T01:52:28;101148.58;;;0.91;79.96
48095;BME280;33874;52.070;-0.516;2023-03-15T01:55:32;101155.36;;;0.90;80.57
48095;BME280;33874;52.070;-0.516;2023-03-15T01:57:53;101163.55;;;0.89;80.10
48095;BME280;33874;52.070;-0.516;2023-03-15T02:00:23;101169.44;;;0.89;80.59
48095;BME280;33874;52.070;-0.516;2023-03-15T02:02:52;101169.48;;;0.88;80.37
48095;BME280;33874;52.070;-0.516;2023-03-15T02:05:23;101171.72;;;0.88;80.67
48095;BME280;33874;52.070;-0.516;2023-03-15T02:07:54;101169.52;;;0.86;80.55
48095;BME280;33874;52.070;-0.516;2023-03-15T02:10:33;101168.40;;;0.84;80.50
48095;BME280;33874;52.070;-0.516;2023-03-15T02:13:02;101166.38;;;0.83;80.30
48095;BME280;33874;52.070;-0.516;2023-03-15T02:15:30;101175.52;;;0.79;80.08
48095;BME280;33874;52.070;-0.516;2023-03-15T02:17:57;101173.75;;;0.76;80.42
48095;BME280;33874;52.070;-0.516;2023-03-15T02:23:00;101169.27;;;0.70;80.31
48095;BME280;33874;52.070;-0.516;2023-03-15T02:28:15;101162.76;;;0.59;80.60
48095;BME280;33874;52.070;-0.516;2023-03-15T02:30:44;101164.64;;;0.55;80.74
48095;BME280;33874;52.070;-0.516;2023-03-15T02:33:15;101168.68;;;0.54;80.53
48095;BME280;33874;52.070;-0.516;2023-03-15T02:35:45;101168.20;;;0.53;80.99
48095;BME280;33874;52.070;-0.516;2023-03-15T02:38:13;101165.95;;;0.53;81.27
48095;BME280;33874;52.070;-0.516;2023-03-15T02:40:41;101169.55;;;0.53;81.41
48095;BME280;33874;52.070;-0.516;2023-03-15T02:43:20;101171.94;;;0.54;81.38
48095;BME280;33874;52.070;-0.516;2023-03-15T02:45:50;101176.77;;;0.55;81.66
48095;BME280;33874;52.070;-0.516;2023-03-15T02:48:18;101178.73;;;0.53;81.47
48095;BME280;33874;52.070;-0.516;2023-03-15T02:50:48;101179.94;;;0.54;81.42
48095;BME280;33874;52.070;-0.516;2023-03-15T02:53:18;101176.08;;;0.55;82.02
48095;BME280;33874;52.070;-0.516;2023-03-15T02:55:46;101178.42;;;0.56;81.96
48095;BME280;33874;52.070;-0.516;2023-03-15T02:58:14;101179.06;;;0.58;82.09
48095;BME280;33874;52.070;-0.516;2023-03-15T03:00:43;101179.93;;;0.58;81.88
48095;BME280;33874;52.070;-0.516;2023-03-15T03:03:12;101180.63;;;0.58;81.99
48095;BME280;33874;52.070;-0.516;2023-03-15T03:05:40;101184.65;;;0.57;81.70
48095;BME280;33874;52.070;-0.516;2023-03-15T03:08:08;101184.27;;;0.53;81.54
48095;BME280;33874;52.070;-0.516;2023-03-15T03:10:36;101176.91;;;0.51;81.60
48095;BME280;33874;52.070;-0.516;2023-03-15T03:13:04;101178.48;;;0.51;81.99
48095;BME280;33874;52.070;-0.516;2023-03-15T03:15:31;101179.85;;;0.51;82.01
48095;BME280;33874;52.070;-0.516;2023-03-15T03:17:59;101178.99;;;0.51;81.89
48095;BME280;33874;52.070;-0.516;2023-03-15T03:20:27;101179.09;;;0.48;81.76
48095;BME280;33874;52.070;-0.516;2023-03-15T03:22:55;101185.54;;;0.46;81.75
48095;BME280;33874;52.070;-0.516;2023-03-15T03:25:22;101187.38;;;0.43;81.60
48095;BME280;33874;52.070;-0.516;2023-03-15T03:27:54;101189.05;;;0.40;81.44
48095;BME280;33874;52.070;-0.516;2023-03-15T03:30:24;101197.33;;;0.36;81.43
48095;BME280;33874;52.070;-0.516;2023-03-15T03:32:51;101205.35;;;0.29;80.95
48095;BME280;33874;52.070;-0.516;2023-03-15T03:35:20;101206.20;;;0.25;81.05
48095;BME280;33874;52.070;-0.516;2023-03-15T03:37:48;101210.59;;;0.22;81.61
48095;BME280;33874;52.070;-0.516;2023-03-15T03:40:16;101216.12;;;0.22;81.75
48095;BME280;33874;52.070;-0.516;2023-03-15T03:42:44;101220.55;;;0.24;81.42
48095;BME280;33874;52.070;-0.516;2023-03-15T03:45:11;101223.45;;;0.25;81.86
48095;BME280;33874;52.070;-0.516;2023-03-15T03:47:39;101227.38;;;0.27;82.18
48095;BME280;33874;52.070;-0.516;2023-03-15T03:50:09;101230.10;;;0.28;82.17
48095;BME280;33874;52.070;-0.516;2023-03-15T03:52:37;101235.52;;;0.27;82.18
48095;BME280;33874;52.070;-0.516;2023-03-15T03:55:05;101236.70;;;0.28;82.28
48095;BME280;33874;52.070;-0.516;2023-03-15T03:57:33;101231.38;;;0.27;81.73
48095;BME280;33874;52.070;-0.516;2023-03-15T04:00:01;101227.08;;;0.26;82.05
48095;BME280;33874;52.070;-0.516;2023-03-15T04:02:28;101229.88;;;0.24;81.50
48095;BME280;33874;52.070;-0.516;2023-03-15T04:04:56;101229.20;;;0.24;81.97
48095;BME280;33874;52.070;-0.516;2023-03-15T04:07:26;101226.79;;;0.24;82.01
48095;BME280;33874;52.070;-0.516;2023-03-15T04:09:54;101225.47;;;0.22;81.91
48095;BME280;33874;52.070;-0.516;2023-03-15T04:12:22;101228.95;;;0.21;82.10
48095;BME280;33874;52.070;-0.516;2023-03-15T04:14:50;101227.93;;;0.21;81.84
48095;BME280;33874;52.070;-0.516;2023-03-15T04:17:17;101216.21;;;0.20;81.94
48095;BME280;33874;52.070;-0.516;2023-03-15T04:19:46;101216.74;;;0.19;81.87
48095;BME280;33874;52.070;-0.516;2023-03-15T04:22:14;101220.73;;;0.19;81.95
48095;BME280;33874;52.070;-0.516;2023-03-15T04:24:42;101225.08;;;0.18;81.90
48095;BME280;33874;52.070;-0.516;2023-03-15T04:27:10;101226.66;;;0.17;81.69
48095;BME280;33874;52.070;-0.516;2023-03-15T04:29:41;101225.95;;;0.17;82.14
48095;BME280;33874;52.070;-0.516;2023-03-15T04:32:10;101224.91;;;0.18;81.94
48095;BME280;33874;52.070;-0.516;2023-03-15T04:34:38;101231.14;;;0.18;82.02
48095;BME280;33874;52.070;-0.516;2023-03-15T04:37:06;101233.21;;;0.18;81.80
48095;BME280;33874;52.070;-0.516;2023-03-15T04:39:34;101236.19;;;0.17;82.08
48095;BME280;33874;52.070;-0.516;2023-03-15T04:42:02;101243.84;;;0.16;82.24
48095;BME280;33874;52.070;-0.516;2023-03-15T04:44:30;101249.14;;;0.12;82.14
48095;BME280;33874;52.070;-0.516;2023-03-15T04:46:58;101245.08;;;0.10;81.74
48095;BME280;33874;52.070;-0.516;2023-03-15T04:49:26;101243.75;;;0.08;82.24
48095;BME280;33874;52.070;-0.516;2023-03-15T04:51:54;101245.66;;;0.08;81.89
48095;BME280;33874;52.070;-0.516;2023-03-15T04:54:22;101249.58;;;0.04;81.52
48095;BME280;33874;52.070;-0.516;2023-03-15T04:56:51;101249.21;;;-0.01;81.46
48095;BME280;33874;52.070;-0.516;2023-03-15T04:59:19;101252.10;;;-0.04;81.57
48095;BME280;33874;52.070;-0.516;2023-03-15T05:01:47;101253.02;;;-0.06;81.76
48095;BME280;33874;52.070;-0.516;2023-03-15T05:04:16;101248.75;;;-0.07;81.83
48095;BME280;33874;52.070;-0.516;2023-03-15T05:06:44;101240.15;;;-0.09;81.57
48095;BME280;33874;52.070;-0.516;2023-03-15T05:09:12;101246.06;;;-0.10;81.80
48095;BME280;33874;52.070;-0.516;2023-03-15T05:11:45;101244.00;;;-0.10;81.96
48095;BME280;33874;52.070;-0.516;2023-03-15T05:14:14;101248.14;;;-0.10;81.88
48095;BME280;33874;52.070;-0.516;2023-03-15T05:16:43;101245.41;;;-0.11;81.99
48095;BME280;33874;52.070;-0.516;2023-03-15T05:19:11;101242.48;;;-0.11;82.17
48095;BME280;33874;52.070;-0.516;2023-03-15T05:21:38;101244.04;;;-0.11;82.07
48095;BME280;33874;52.070;-0.516;2023-03-15T05:24:06;101248.38;;;-0.12;82.13
48095;BME280;33874;52.070;-0.516;2023-03-15T05:26:34;101249.84;;;-0.14;81.74
48095;BME280;33874;52.070;-0.516;2023-03-15T05:29:02;101248.94;;;-0.18;81.45
48095;BME280;33874;52.070;-0.516;2023-03-15T05:31:30;101245.59;;;-0.22;81.59
48095;BME280;33874;52.070;-0.516;2023-03-15T05:34:04;101254.09;;;-0.23;81.64
48095;BME280;33874;52.070;-0.516;2023-03-15T05:36:32;101252.38;;;-0.23;82.01
48095;BME280;33874;52.070;-0.516;2023-03-15T05:39:00;101254.66;;;-0.24;82.10
48095;BME280;33874;52.070;-0.516;2023-03-15T05:41:30;101252.08;;;-0.25;81.85
48095;BME280;33874;52.070;-0.516;2023-03-15T05:43:58;101251.95;;;-0.26;82.24
48095;BME280;33874;52.070;-0.516;2023-03-15T05:46:26;101253.40;;;-0.28;81.72
48095;BME280;33874;52.070;-0.516;2023-03-15T05:48:53;101259.34;;;-0.30;81.77
48095;BME280;33874;52.070;-0.516;2023-03-15T05:51:21;101268.42;;;-0.34;81.49
48095;BME280;33874;52.070;-0.516;2023-03-15T05:53:49;101273.73;;;-0.38;81.55
48095;BME280;33874;52.070;-0.516;2023-03-15T05:56:17;101277.70;;;-0.43;81.60
48095;BME280;33874;52.070;-0.516;2023-03-15T05:58:45;101283.70;;;-0.48;81.19
48095;BME280;33874;52.070;-0.516;2023-03-15T06:01:13;101286.48;;;-0.54;81.20
48095;BME280;33874;52.070;-0.516;2023-03-15T06:03:41;101290.61;;;-0.59;81.20
48095;BME280;33874;52.070;-0.516;2023-03-15T06:06:09;101290.75;;;-0.63;81.25
48095;BME280;33874;52.070;-0.516;2023-03-15T06:08:37;101295.52;;;-0.67;81.43
48095;BME280;33874;52.070;-0.516;2023-03-15T06:11:05;101299.48;;;-0.73;81.22
48095;BME280;33874;52.070;-0.516;2023-03-15T06:13:33;101299.43;;;-0.77;80.99
48095;BME280;33874;52.070;-0.516;2023-03-15T06:16:02;101294.88;;;-0.81;81.09
48095;BME280;33874;52.070;-0.516;2023-03-15T06:18:29;101290.00;;;-0.85;81.01
48095;BME280;33874;52.070;-0.516;2023-03-15T06:20:57;101295.61;;;-0.88;81.15
48095;BME280;33874;52.070;-0.516;2023-03-15T06:23:25;101298.80;;;-0.91;81.28
48095;BME280;33874;52.070;-0.516;2023-03-15T06:25:54;101300.09;;;-0.94;81.04
48095;BME280;33874;52.070;-0.516;2023-03-15T06:28:22;101303.60;;;-0.96;80.94
48095;BME280;33874;52.070;-0.516;2023-03-15T06:30:50;101306.21;;;-0.97;81.07
48095;BME280;33874;52.070;-0.516;2023-03-15T06:33:19;101304.48;;;-0.97;81.08
48095;BME280;33874;52.070;-0.516;2023-03-15T06:35:49;101305.67;;;-0.96;81.17
48095;BME280;33874;52.070;-0.516;2023-03-15T06:38:17;101308.56;;;-0.95;81.26
48095;BME280;33874;52.070;-0.516;2023-03-15T06:40:45;101309.52;;;-0.92;81.31
48095;BME280;33874;52.070;-0.516;2023-03-15T06:43:13;101311.84;;;-0.88;81.37
48095;BME280;33874;52.070;-0.516;2023-03-15T06:45:46;101312.36;;;-0.82;81.56
48095;BME280;33874;52.070;-0.516;2023-03-15T06:48:13;101314.06;;;-0.76;81.85
48095;BME280;33874;52.070;-0.516;2023-03-15T06:50:41;101314.91;;;-0.69;81.93
48095;BME280;33874;52.070;-0.516;2023-03-15T06:53:14;101314.34;;;-0.62;81.89
48095;BME280;33874;52.070;-0.516;2023-03-15T06:55:42;101317.84;;;-0.23;81.37
48095;BME280;33874;52.070;-0.516;2023-03-15T06:58:11;101313.55;;;0.60;81.64
48095;BME280;33874;52.070;-0.516;2023-03-15T07:00:39;101313.97;;;1.35;80.93
48095;BME280;33874;52.070;-0.516;2023-03-15T07:03:07;101312.65;;;2.04;80.22
48095;BME280;33874;52.070;-0.516;2023-03-15T07:05:35;101310.48;;;2.73;80.03
48095;BME280;33874;52.070;-0.516;2023-03-15T07:08:04;101313.42;;;3.40;79.27
48095;BME280;33874;52.070;-0.516;2023-03-15T07:10:32;101311.20;;;3.94;78.36
48095;BME280;33874;52.070;-0.516;2023-03-15T07:12:59;101313.95;;;4.34;77.59
48095;BME280;33874;52.070;-0.516;2023-03-15T07:15:27;101312.32;;;4.70;77.44
48095;BME280;33874;52.070;-0.516;2023-03-15T07:17:55;101319.61;;;4.80;76.65
48095;BME280;33874;52.070;-0.516;2023-03-15T07:20:23;101330.21;;;5.01;75.90
48095;BME280;33874;52.070;-0.516;2023-03-15T07:22:51;101337.89;;;5.11;75.54
48095;BME280;33874;52.070;-0.516;2023-03-15T07:25:19;101332.63;;;5.08;75.14
48095;BME280;33874;52.070;-0.516;2023-03-15T07:27:51;101336.34;;;5.03;75.13
48095;BME280;33874;52.070;-0.516;2023-03-15T07:30:19;101336.20;;;5.03;74.91
48095;BME280;33874;52.070;-0.516;2023-03-15T07:32:47;101336.13;;;5.01;74.80
48095;BME280;33874;52.070;-0.516;2023-03-15T07:35:15;101337.91;;;4.90;74.52
48095;BME280;33874;52.070;-0.516;2023-03-15T07:37:44;101337.96;;;4.82;74.64
48095;BME280;33874;52.070;-0.516;2023-03-15T07:40:14;101337.20;;;4.70;74.63
48095;BME280;33874;52.070;-0.516;2023-03-15T07:42:43;101334.39;;;4.60;74.52
48095;BME280;33874;52.070;-0.516;2023-03-15T07:45:11;101336.52;;;4.63;74.42
48095;BME280;33874;52.070;-0.516;2023-03-15T07:47:39;101336.00;;;4.70;74.48
48095;BME280;33874;52.070;-0.516;2023-03-15T07:50:07;101328.99;;;4.81;74.50
48095;BME280;33874;52.070;-0.516;2023-03-15T07:52:35;101324.90;;;4.86;74.56
48095;BME280;33874;52.070;-0.516;2023-03-15T07:55:03;101323.36;;;4.92;74.85
48095;BME280;33874;52.070;-0.516;2023-03-15T07:57:35;101321.34;;;4.94;75.64
48095;BME280;33874;52.070;-0.516;2023-03-15T08:00:03;101317.89;;;4.90;75.89
48095;BME280;33874;52.070;-0.516;2023-03-15T08:02:32;101314.20;;;4.84;75.77
48095;BME280;33874;52.070;-0.516;2023-03-15T08:05:00;101317.02;;;4.76;75.71
48095;BME280;33874;52.070;-0.516;2023-03-15T08:07:31;101314.02;;;4.70;75.61
48095;BME280;33874;52.070;-0.516;2023-03-15T08:09:59;101315.94;;;4.67;75.70
48095;BME280;33874;52.070;-0.516;2023-03-15T08:12:28;101310.05;;;4.66;75.75
48095;BME280;33874;52.070;-0.516;2023-03-15T08:14:57;101302.82;;;4.65;75.89
48095;BME280;33874;52.070;-0.516;2023-03-15T08:17:25;101304.92;;;4.64;75.81
48095;BME280;33874;52.070;-0.516;2023-03-15T08:19:52;101306.05;;;4.63;75.90
48095;BME280;33874;52.070;-0.516;2023-03-15T08:22:21;101308.70;;;4.62;75.74
48095;BME280;33874;52.070;-0.516;2023-03-15T08:24:49;101308.52;;;4.62;75.88
48095;BME280;33874;52.070;-0.516;2023-03-15T08:27:19;101310.02;;;4.64;75.96
48095;BME280;33874;52.070;-0.516;2023-03-15T08:29:47;101309.43;;;4.68;76.14
48095;BME280;33874;52.070;-0.516;2023-03-15T08:32:15;101311.84;;;4.69;75.98
48095;BME280;33874;52.070;-0.516;2023-03-15T08:34:43;101315.75;;;4.67;75.83
48095;BME280;33874;52.070;-0.516;2023-03-15T08:37:11;101319.32;;;4.69;75.78
48095;BME280;33874;52.070;-0.516;2023-03-15T08:39:40;101321.44;;;4.68;75.69
48095;BME280;33874;52.070;-0.516;2023-03-15T08:42:08;101324.13;;;4.70;75.79
48095;BME280;33874;52.070;-0.516;2023-03-15T08:44:37;101328.38;;;4.72;75.78
48095;BME280;33874;52.070;-0.516;2023-03-15T08:47:04;101324.05;;;4.75;75.97
48095;BME280;33874;52.070;-0.516;2023-03-15T08:49:32;101323.79;;;4.80;75.93
48095;BME280;33874;52.070;-0.516;2023-03-15T08:52:00;101326.01;;;4.85;75.92
48095;BME280;33874;52.070;-0.516;2023-03-15T08:54:30;101325.59;;;4.93;75.93
48095;BME280;33874;52.070;-0.516;2023-03-15T08:56:59;101329.80;;;4.99;76.02
48095;BME280;33874;52.070;-0.516;2023-03-15T08:59:27;101330.80;;;5.06;76.02
48095;BME280;33874;52.070;-0.516;2023-03-15T09:01:59;101338.27;;;5.16;76.18
48095;BME280;33874;52.070;-0.516;2023-03-15T09:04:27;101335.13;;;5.23;76.21
48095;BME280;33874;52.070;-0.516;2023-03-15T09:06:55;101336.02;;;5.33;76.32
48095;BME280;33874;52.070;-0.516;2023-03-15T09:09:25;101331.77;;;5.40;76.29
48095;BME280;33874;52.070;-0.516;2023-03-15T09:11:53;101331.60;;;5.47;76.09
48095;BME280;33874;52.070;-0.516;2023-03-15T09:14:22;101335.66;;;5.52;75.99
48095;BME280;33874;52.070;-0.516;2023-03-15T09:16:50;101339.35;;;5.58;75.68
48095;BME280;33874;52.070;-0.516;2023-03-15T09:19:19;101338.81;;;5.62;75.67
48095;BME280;33874;52.070;-0.516;2023-03-15T09:21:47;101336.36;;;5.65;75.70
48095;BME280;33874;52.070;-0.516;2023-03-15T09:24:15;101334.73;;;5.72;75.83
48095;BME280;33874;52.070;-0.516;2023-03-15T09:26:43;101336.61;;;5.80;75.80
48095;BME280;33874;52.070;-0.516;2023-03-15T09:29:11;101334.39;;;5.88;75.76
48095;BME280;33874;52.070;-0.516;2023-03-15T09:31:40;101334.06;;;5.94;75.47
48095;BME280;33874;52.070;-0.516;2023-03-15T09:34:08;101338.40;;;6.01;75.24
48095;BME280;33874;52.070;-0.516;2023-03-15T09:36:37;101337.14;;;6.11;75.20
48095;BME280;33874;52.070;-0.516;2023-03-15T09:39:05;101333.92;;;6.27;75.42
48095;BME280;33874;52.070;-0.516;2023-03-15T09:41:39;101332.60;;;6.41;75.16
48095;BME280;33874;52.070;-0.516;2023-03-15T09:44:13;101327.94;;;6.52;74.89
48095;BME280;33874;52.070;-0.516;2023-03-15T09:46:49;101331.02;;;6.65;74.69
48095;BME280;33874;52.070;-0.516;2023-03-15T09:49:39;101327.92;;;6.76;74.48
48095;BME280;33874;52.070;-0.516;2023-03-15T09:52:12;101327.75;;;6.88;74.10
48095;BME280;33874;52.070;-0.516;2023-03-15T09:54:45;101330.01;;;6.97;73.97
48095;BME280;33874;52.070;-0.516;2023-03-15T09:57:17;101332.54;;;7.07;73.61
48095;BME280;33874;52.070;-0.516;2023-03-15T09:59:50;101330.45;;;7.15;73.49
48095;BME280;33874;52.070;-0.516;2023-03-15T10:05:15;101337.34;;;7.31;73.09
48095;BME280;33874;52.070;-0.516;2023-03-15T10:07:43;101335.54;;;7.40;72.78
48095;BME280;33874;52.070;-0.516;2023-03-15T10:10:18;101337.32;;;7.49;72.41
48095;BME280;33874;52.070;-0.516;2023-03-15T10:12:48;101337.02;;;7.53;72.12
48095;BME280;33874;52.070;-0.516;2023-03-15T10:15:24;101336.34;;;7.58;72.24
48095;BME280;33874;52.070;-0.516;2023-03-15T10:20:40;101332.84;;;7.75;71.87
48095;BME280;33874;52.070;-0.516;2023-03-15T10:23:14;101332.36;;;7.82;71.59
48095;BME280;33874;52.070;-0.516;2023-03-15T10:25:45;101329.64;;;7.89;71.25
48095;BME280;33874;52.070;-0.516;2023-03-15T10:28:19;101326.95;;;8.01;71.15
48095;BME280;33874;52.070;-0.516;2023-03-15T10:30:50;101323.58;;;8.12;70.94
48095;BME280;33874;52.070;-0.516;2023-03-15T10:33:29;101325.65;;;8.15;70.28
48095;BME280;33874;52.070;-0.516;2023-03-15T10:35:58;101326.64;;;8.17;69.92
48095;BME280;33874;52.070;-0.516;2023-03-15T10:38:38;101333.05;;;8.20;69.89
48095;BME280;33874;52.070;-0.516;2023-03-15T10:41:06;101338.27;;;8.27;69.80
48095;BME280;33874;52.070;-0.516;2023-03-15T10:43:35;101336.59;;;8.36;69.89
48095;BME280;33874;52.070;-0.516;2023-03-15T10:46:11;101330.41;;;8.42;69.71
48095;BME280;33874;52.070;-0.516;2023-03-15T10:51:32;101333.14;;;8.56;69.28
48095;BME280;33874;52.070;-0.516;2023-03-15T10:54:07;101332.08;;;8.62;69.30
48095;BME280;33874;52.070;-0.516;2023-03-15T10:56:56;101332.95;;;8.70;68.72
48095;BME280;33874;52.070;-0.516;2023-03-15T10:59:56;101331.16;;;8.75;68.09
48095;BME280;33874;52.070;-0.516;2023-03-15T11:02:24;101326.44;;;8.80;67.85
48095;BME280;33874;52.070;-0.516;2023-03-15T11:05:00;101322.23;;;8.82;67.64
48095;BME280;33874;52.070;-0.516;2023-03-15T11:07:30;101317.15;;;8.83;67.43
48095;BME280;33874;52.070;-0.516;2023-03-15T11:10:02;101316.00;;;8.89;67.52
48095;BME280;33874;52.070;-0.516;2023-03-15T11:12:31;101318.77;;;9.00;67.63
48095;BME280;33874;52.070;-0.516;2023-03-15T11:15:11;101322.27;;;9.08;67.39
48095;BME280;33874;52.070;-0.516;2023-03-15T11:17:45;101323.02;;;9.12;67.07
48095;BME280;33874;52.070;-0.516;2023-03-15T11:22:52;101314.30;;;9.09;66.59
48095;BME280;33874;52.070;-0.516;2023-03-15T11:25:20;101312.91;;;9.13;66.64
48095;BME280;33874;52.070;-0.516;2023-03-15T11:27:52;101313.45;;;9.19;66.32
48095;BME280;33874;52.070;-0.516;2023-03-15T11:30:22;101312.83;;;9.18;65.75
48095;BME280;33874;52.070;-0.516;2023-03-15T11:32:52;101308.64;;;9.17;65.43
48095;BME280;33874;52.070;-0.516;2023-03-15T11:35:27;101307.67;;;9.19;65.32
48095;BME280;33874;52.070;-0.516;2023-03-15T11:38:01;101305.58;;;9.23;65.25
48095;BME280;33874;52.070;-0.516;2023-03-15T11:40:45;101303.64;;;9.33;65.35
48095;BME280;33874;52.070;-0.516;2023-03-15T11:43:20;101300.04;;;9.42;65.47
48095;BME280;33874;52.070;-0.516;2023-03-15T11:45:50;101294.51;;;9.48;65.19
48095;BME280;33874;52.070;-0.516;2023-03-15T11:48:30;101291.13;;;9.51;65.00
48095;BME280;33874;52.070;-0.516;2023-03-15T11:51:03;101291.23;;;9.52;64.42
48095;BME280;33874;52.070;-0.516;2023-03-15T11:53:43;101291.27;;;9.52;64.32
48095;BME280;33874;52.070;-0.516;2023-03-15T11:56:25;101288.48;;;9.56;64.32
48095;BME280;33874;52.070;-0.516;2023-03-15T11:59:07;101290.29;;;9.58;63.96
48095;BME280;33874;52.070;-0.516;2023-03-15T12:01:50;101290.98;;;9.58;63.70
48095;BME280;33874;52.070;-0.516;2023-03-15T12:06:52;101290.86;;;9.57;63.35
48095;BME280;33874;52.070;-0.516;2023-03-15T12:15:00;101280.82;;;9.75;63.17
48095;BME280;33874;52.070;-0.516;2023-03-15T12:17:35;101273.42;;;9.82;63.14
48095;BME280;33874;52.070;-0.516;2023-03-15T12:22:52;101258.35;;;9.94;62.48
48095;BME280;33874;52.070;-0.516;2023-03-15T12:25:36;101254.65;;;9.97;61.65
48095;BME280;33874;52.070;-0.516;2023-03-15T12:28:49;101252.83;;;9.97;61.23
48095;BME280;33874;52.070;-0.516;2023-03-15T12:31:11;101249.95;;;10.03;61.18
48095;BME280;33874;52.070;-0.516;2023-03-15T12:33:50;101245.27;;;10.07;61.27
48095;BME280;33874;52.070;-0.516;2023-03-15T12:36:36;101244.75;;;10.07;60.52
48095;BME280;33874;52.070;-0.516;2023-03-15T12:41:43;101242.02;;;10.08;59.89
48095;BME280;33874;52.070;-0.516;2023-03-15T12:44:17;101237.97;;;10.08;59.58
48095;BME280;33874;52.070;-0.516;2023-03-15T12:49:27;101237.67;;;10.05;59.86
48095;BME280;33874;52.070;-0.516;2023-03-15T12:54:36;101237.06;;;9.97;59.34
48095;BME280;33874;52.070;-0.516;2023-03-15T12:57:08;101237.85;;;9.94;59.50
48095;BME280;33874;52.070;-0.516;2023-03-15T12:59:50;101239.11;;;9.91;58.99
48095;BME280;33874;52.070;-0.516;2023-03-15T13:02:24;101244.97;;;9.83;58.62
48095;BME280;33874;52.070;-0.516;2023-03-15T13:07:42;101240.73;;;9.83;58.52
48095;BME280;33874;52.070;-0.516;2023-03-15T13:12:52;101232.63;;;9.83;58.59
48095;BME280;33874;52.070;-0.516;2023-03-15T13:15:23;101229.55;;;9.89;58.72
48095;BME280;33874;52.070;-0.516;2023-03-15T13:17:56;101228.48;;;9.94;58.43
48095;BME280;33874;52.070;-0.516;2023-03-15T13:25:50;101216.08;;;9.82;58.21
48095;BME280;33874;52.070;-0.516;2023-03-15T13:30:51;101214.95;;;9.80;58.31
48095;BME280;33874;52.070;-0.516;2023-03-15T13:38:27;101206.37;;;9.68;57.80
48095;BME280;33874;52.070;-0.516;2023-03-15T13:40:56;101197.23;;;9.64;57.71
48095;BME280;33874;52.070;-0.516;2023-03-15T13:43:26;101190.03;;;9.59;57.73
48095;BME280;33874;52.070;-0.516;2023-03-15T13:45:55;101188.73;;;9.55;57.65
48095;BME280;33874;52.070;-0.516;2023-03-15T13:48:25;101181.85;;;9.51;57.87
48095;BME280;33874;52.070;-0.516;2023-03-15T13:50:54;101179.23;;;9.48;57.79
48095;BME280;33874;52.070;-0.516;2023-03-15T13:53:23;101172.77;;;9.46;57.71
48095;BME280;33874;52.070;-0.516;2023-03-15T13:56:13;101170.31;;;9.38;57.35